Time;durP1;ratioP1;P1;durP2;ratioP2;P2;SDS_P1;SDS_P2;PMS_P1;PMS_P2;Temp;Humidity;BMP_temperature;BMP_pressure;BME280_temperature;BME280_humidity;BME280_pressure;Samples;Min_cycle;Max_cycle;Signal;HPM_P1;HPM_P2
2022/04/16 00:01:43;;;;;;;1.65;0.30;;;25.20;41.90;;;;;;5064970;28;20048;-55
2022/04/16 00:04:10;;;;;;;0.88;0.28;;;25.20;41.90;;;;;;5046728;28;20053;-56
2022/04/16 00:06:38;;;;;;;0.43;0.35;;;25.30;42.00;;;;;;5065204;28;20139;-54
2022/04/16 00:09:05;;;;;;;0.50;0.30;;;25.20;41.90;;;;;;5065322;28;20428;-54
2022/04/16 00:11:34;;;;;;;0.52;0.20;;;25.20;41.90;;;;;;5066069;28;20131;-56
2022/04/16 00:14:03;;;;;;;0.60;0.28;;;25.20;41.90;;;;;;5066893;28;20505;-56
2022/04/16 00:16:31;;;;;;;0.63;0.50;;;25.20;42.00;;;;;;5068443;28;20068;-57
2022/04/16 00:18:58;;;;;;;0.93;0.13;;;25.10;41.90;;;;;;5068472;28;20040;-53
2022/04/16 00:21:25;;;;;;;1.25;0.20;;;25.10;41.90;;;;;;5068200;28;20112;-56
2022/04/16 00:23:53;;;;;;;0.45;0.43;;;25.10;41.90;;;;;;5068623;28;20059;-57
2022/04/16 00:26:20;;;;;;;1.30;0.20;;;25.20;42.00;;;;;;5052583;28;20052;-55
2022/04/16 00:28:49;;;;;;;0.88;0.40;;;25.10;42.00;;;;;;5067734;28;20056;-54
2022/04/16 00:31:16;;;;;;;0.40;0.40;;;25.10;42.00;;;;;;5067892;28;20034;-55
2022/04/16 00:33:46;;;;;;;0.55;0.30;;;25.10;42.00;;;;;;5068253;28;20045;-54
2022/04/16 00:36:15;;;;;;;0.10;0.10;;;25.10;42.00;;;;;;5067902;28;20503;-56
2022/04/16 00:38:42;;;;;;;1.15;0.45;;;25.00;41.90;;;;;;5068934;28;20041;-52
2022/04/16 00:41:11;;;;;;;0.20;0.20;;;25.00;41.90;;;;;;5035112;28;20151;-55
2022/04/16 00:43:38;;;;;;;1.75;0.30;;;25.00;42.00;;;;;;5064895;28;20036;-56
2022/04/16 00:46:07;;;;;;;0.65;0.20;;;25.00;42.00;;;;;;5067527;28;20063;-55
2022/04/16 00:48:34;;;;;;;0.90;0.65;;;25.00;42.00;;;;;;5067667;28;20038;-56
2022/04/16 00:51:01;;;;;;;0.57;0.20;;;25.00;42.00;;;;;;5068192;28;20068;-54
2022/04/16 00:53:29;;;;;;;0.55;0.20;;;25.00;42.00;;;;;;5070260;28;20048;-56
2022/04/16 00:55:57;;;;;;;0.60;0.30;;;25.00;42.10;;;;;;5039182;28;20044;-56
2022/04/16 00:58:24;;;;;;;0.50;0.50;;;25.00;42.10;;;;;;5063399;28;20802;-54
2022/04/16 01:00:51;;;;;;;1.55;0.20;;;24.90;42.00;;;;;;5067605;28;20098;-51
2022/04/16 01:03:20;;;;;;;0.98;0.38;;;24.90;42.00;;;;;;5067526;28;20055;-52
2022/04/16 01:05:47;;;;;;;1.42;0.20;;;24.90;42.10;;;;;;5067809;28;20757;-54
2022/04/16 01:08:18;;;;;;;0.65;0.47;;;24.90;42.00;;;;;;5070080;28;20040;-57
2022/04/16 01:10:45;;;;;;;1.75;0.30;;;24.90;42.10;;;;;;5067880;28;20420;-54
2022/04/16 01:13:12;;;;;;;0.68;0.68;;;24.90;42.10;;;;;;5049582;28;20637;-55
2022/04/16 01:15:41;;;;;;;0.82;0.30;;;24.90;42.10;;;;;;5067796;28;20558;-54
2022/04/16 01:18:08;;;;;;;0.20;0.20;;;24.90;42.10;;;;;;5049087;28;20037;-56
2022/04/16 01:20:38;;;;;;;0.70;0.22;;;24.80;42.10;;;;;;5068394;28;20048;-53
2022/04/16 01:23:07;;;;;;;0.40;0.40;;;24.80;42.10;;;;;;5068987;28;20132;-54
2022/04/16 01:25:36;;;;;;;0.77;0.20;;;24.90;42.20;;;;;;5066606;28;20047;-55
2022/04/16 01:28:03;;;;;;;0.20;0.20;;;24.80;42.10;;;;;;5067297;28;20044;-56
2022/04/16 01:30:31;;;;;;;0.10;0.10;;;24.80;42.10;;;;;;5065011;28;20468;-51
2022/04/16 01:32:58;;;;;;;0.50;0.30;;;24.80;42.20;;;;;;5067298;28;20052;-55
2022/04/16 01:35:25;;;;;;;0.52;0.30;;;24.80;42.20;;;;;;5069162;28;20032;-55
2022/04/16 01:37:52;;;;;;;1.25;0.45;;;24.80;42.20;;;;;;5048920;28;20045;-56
2022/04/16 01:40:25;;;;;;;0.22;0.17;;;24.80;42.20;;;;;;5069229;28;20468;-56
2022/04/16 01:42:56;;;;;;;0.73;0.40;;;24.80;42.80;;;;;;5067700;28;20043;-54
2022/04/16 01:45:24;;;;;;;0.98;0.30;;;24.70;42.20;;;;;;5066989;28;20044;-55
2022/04/16 01:47:51;;;;;;;0.25;0.25;;;24.70;42.20;;;;;;5066509;28;20051;-54
2022/04/16 01:50:19;;;;;;;0.82;0.30;;;24.70;42.20;;;;;;5069038;28;20051;-54
2022/04/16 01:52:47;;;;;;;0.80;0.20;;;24.70;42.20;;;;;;5067147;28;20553;-54
2022/04/16 01:55:14;;;;;;;0.80;0.20;;;24.70;42.20;;;;;;5061604;28;20041;-56
2022/04/16 01:57:43;;;;;;;0.50;0.10;;;24.70;42.20;;;;;;5056715;28;20143;-52
2022/04/16 02:00:14;;;;;;;0.70;0.30;;;24.70;42.20;;;;;;5064601;28;20087;-57
2022/04/16 02:02:42;;;;;;;0.68;0.30;;;24.70;42.30;;;;;;5062519;28;20094;-50
2022/04/16 02:05:10;;;;;;;4.75;2.42;;;24.70;42.50;;;;;;5054487;28;20051;-53
2022/04/16 02:07:38;;;;;;;2.72;2.20;;;24.60;41.10;;;;;;5064157;28;20108;-56
2022/04/16 02:10:06;;;;;;;5.68;2.33;;;24.40;40.50;;;;;;5066075;28;20047;-53
2022/04/16 02:12:33;;;;;;;5.60;3.10;;;24.20;40.30;;;;;;5065837;28;20029;-49
2022/04/16 02:15:03;;;;;;;5.10;2.80;;;24.00;40.30;;;;;;5050559;28;20321;-46
2022/04/16 02:17:32;;;;;;;3.90;2.78;;;23.80;40.30;;;;;;5064733;28;20497;-50
2022/04/16 02:19:59;;;;;;;4.07;3.03;;;23.70;40.50;;;;;;5067303;28;20068;-47
2022/04/16 02:22:26;;;;;;;5.90;4.18;;;23.50;40.50;;;;;;5066451;28;20072;-46
2022/04/16 02:24:53;;;;;;;5.97;2.97;;;23.30;40.70;;;;;;5065616;28;20040;-49
2022/04/16 02:27:20;;;;;;;4.95;2.08;;;23.20;40.90;;;;;;5065805;28;20045;-46
2022/04/16 02:29:47;;;;;;;5.88;3.13;;;23.10;41.70;;;;;;5064404;28;20508;-51
2022/04/16 02:32:16;;;;;;;8.90;2.97;;;23.00;42.50;;;;;;5066527;28;20051;-48
2022/04/16 02:34:43;;;;;;;7.55;2.63;;;23.00;42.90;;;;;;5065403;28;20044;-50
2022/04/16 02:37:10;;;;;;;4.28;2.85;;;23.00;43.10;;;;;;5065006;28;20039;-48
2022/04/16 02:39:37;;;;;;;4.32;2.63;;;22.90;43.10;;;;;;5065388;28;20036;-47
2022/04/16 02:42:05;;;;;;;5.88;2.17;;;22.90;43.20;;;;;;5064977;28;20040;-48
2022/04/16 02:47:17;;;;;;;4.38;2.40;;;22.90;43.20;;;;;;5066524;28;20036;-49
2022/04/16 02:49:44;;;;;;;4.25;2.80;;;22.80;43.20;;;;;;5065217;28;20040;-47
2022/04/16 02:52:11;;;;;;;4.10;2.40;;;22.80;43.20;;;;;;5065485;28;20795;-50
2022/04/16 02:54:38;;;;;;;4.18;3.17;;;22.80;43.20;;;;;;5065833;28;20071;-52
2022/04/16 02:57:06;;;;;;;5.43;2.90;;;22.80;43.20;;;;;;5067141;28;20478;-50
2022/04/16 02:59:35;;;;;;;7.18;3.38;;;22.80;43.20;;;;;;5066538;28;20139;-48
2022/04/16 03:02:02;;;;;;;4.07;2.80;;;22.70;43.20;;;;;;5064648;28;20471;-52
2022/04/16 03:04:31;;;;;;;3.30;2.80;;;22.70;43.30;;;;;;5063586;28;20429;-50
2022/04/16 03:06:58;;;;;;;3.60;2.72;;;22.70;43.20;;;;;;5064063;28;20049;-45
2022/04/16 03:09:25;;;;;;;3.83;2.25;;;22.70;43.20;;;;;;5065004;28;20143;-46
2022/04/16 03:11:52;;;;;;;3.65;2.90;;;22.70;43.20;;;;;;5065986;28;20123;-46
2022/04/16 03:19:50;;;;;;;2.83;1.90;;;22.60;43.10;;;;;;5066017;28;20033;-48
2022/04/16 03:22:17;;;;;;;4.72;3.35;;;22.50;43.00;;;;;;5065515;28;20520;-47
2022/04/16 03:24:44;;;;;;;3.25;2.58;;;22.50;43.00;;;;;;5065538;28;20080;-47
2022/04/16 03:27:11;;;;;;;3.78;2.35;;;22.50;43.00;;;;;;5064835;28;20412;-50
2022/04/16 03:29:38;;;;;;;2.20;1.98;;;22.50;43.00;;;;;;5065897;28;20048;-48
2022/04/16 03:32:06;;;;;;;6.00;3.17;;;22.50;43.00;;;;;;5067018;28;20044;-47
2022/04/16 03:34:33;;;;;;;2.75;2.47;;;22.50;43.00;;;;;;5057027;28;20051;-47
2022/04/16 03:37:02;;;;;;;3.95;2.35;;;22.40;42.90;;;;;;5058038;28;20086;-48
2022/04/16 03:39:29;;;;;;;8.50;3.08;;;22.40;42.90;;;;;;5065805;28;20124;-48
2022/04/16 03:41:56;;;;;;;4.68;3.78;;;22.40;42.90;;;;;;5067579;28;20563;-50
2022/04/16 03:44:23;;;;;;;2.75;2.45;;;22.40;42.90;;;;;;5067434;28;20139;-48
2022/04/16 03:46:50;;;;;;;3.08;2.78;;;22.40;42.90;;;;;;5065260;28;20052;-52
2022/04/16 03:49:17;;;;;;;4.70;3.33;;;22.30;42.90;;;;;;5060980;28;20049;-51
2022/04/16 03:51:44;;;;;;;4.30;3.25;;;22.30;42.90;;;;;;5059284;28;20056;-49
2022/04/16 04:00:00;;;;;;;3.85;3.25;;;22.20;42.90;;;;;;5067132;28;20049;-50
2022/04/16 04:02:27;;;;;;;3.22;2.90;;;22.20;43.00;;;;;;5070791;28;20127;-48
2022/04/16 04:04:54;;;;;;;4.30;2.67;;;22.10;43.10;;;;;;5069114;28;20050;-51
2022/04/16 04:07:21;;;;;;;2.70;2.50;;;22.10;43.10;;;;;;5068804;28;20035;-47
2022/04/16 04:09:50;;;;;;;3.15;2.85;;;22.10;43.10;;;;;;5069018;28;20033;-50
2022/04/16 04:12:17;;;;;;;2.92;2.58;;;22.10;43.60;;;;;;5068201;28;20550;-51
2022/04/16 04:14:46;;;;;;;3.20;2.90;;;22.10;43.10;;;;;;5066592;28;20037;-49
2022/04/16 04:17:14;;;;;;;3.42;2.78;;;22.10;43.10;;;;;;5068465;28;20114;-49
2022/04/16 04:19:43;;;;;;;5.00;3.17;;;22.10;43.00;;;;;;5068943;28;20063;-47
2022/04/16 04:22:11;;;;;;;5.25;3.03;;;22.00;43.00;;;;;;5066103;28;20504;-50
2022/04/16 04:24:40;;;;;;;3.45;3.05;;;22.00;43.00;;;;;;5067268;28;20047;-52
2022/04/16 04:27:09;;;;;;;2.65;2.45;;;22.00;43.10;;;;;;5050550;28;20090;-49
2022/04/16 04:29:37;;;;;;;4.35;2.30;;;22.00;43.00;;;;;;5069114;28;20048;-49
2022/04/16 04:32:05;;;;;;;5.32;2.75;;;22.00;43.10;;;;;;5069521;28;20080;-53
2022/04/16 04:34:32;;;;;;;5.47;2.95;;;22.00;43.10;;;;;;5063914;28;20060;-53
2022/04/16 04:36:59;;;;;;;9.38;4.75;;;22.00;43.20;;;;;;5068861;28;20043;-53
2022/04/16 04:39:26;;;;;;;3.85;3.55;;;21.90;43.10;;;;;;5068428;28;20070;-53
2022/04/16 04:41:53;;;;;;;5.43;3.38;;;21.90;43.10;;;;;;5067794;28;20045;-53
2022/04/16 04:44:22;;;;;;;3.30;2.42;;;21.90;43.00;;;;;;5067703;28;20120;-50
2022/04/16 04:46:49;;;;;;;4.22;2.47;;;21.90;43.00;;;;;;5057549;28;20497;-54
2022/04/16 04:49:16;;;;;;;3.10;2.78;;;21.90;43.00;;;;;;5062928;28;20123;-49
2022/04/16 04:51:43;;;;;;;4.45;3.05;;;21.90;43.00;;;;;;5066243;28;20076;-52
2022/04/16 04:54:10;;;;;;;3.17;2.35;;;21.80;43.00;;;;;;5067371;28;20040;-54
2022/04/16 04:56:37;;;;;;;3.53;2.95;;;21.80;43.10;;;;;;5066284;28;20120;-50
2022/04/16 04:59:05;;;;;;;5.32;3.67;;;21.80;43.10;;;;;;5069271;28;20033;-49
2022/04/16 05:01:33;;;;;;;4.15;2.38;;;21.80;43.20;;;;;;5065480;28;20029;-54
2022/04/16 05:04:01;;;;;;;3.83;3.05;;;21.80;43.30;;;;;;5065312;28;20033;-53
2022/04/16 05:06:28;;;;;;;6.32;3.15;;;21.80;43.30;;;;;;5067459;28;20036;-48
2022/04/16 05:08:55;;;;;;;3.80;3.08;;;21.80;43.40;;;;;;5065417;28;20041;-47
2022/04/16 05:11:22;;;;;;;3.40;2.78;;;21.70;43.50;;;;;;5067522;28;20128;-47
2022/04/16 05:13:49;;;;;;;3.20;2.67;;;21.80;43.70;;;;;;5067448;28;20386;-48
2022/04/16 05:16:16;;;;;;;3.10;2.85;;;21.70;43.60;;;;;;5049400;28;20058;-47
2022/04/16 05:18:44;;;;;;;3.58;3.15;;;21.70;43.60;;;;;;5065661;28;20045;-48
2022/04/16 05:21:11;;;;;;;4.45;3.70;;;21.70;43.70;;;;;;5049274;28;20843;-48
2022/04/16 05:23:40;;;;;;;6.93;3.20;;;21.70;43.60;;;;;;5067700;28;20047;-53
2022/04/16 05:26:09;;;;;;;3.70;2.78;;;21.70;43.60;;;;;;5068793;28;20763;-50
2022/04/16 05:28:36;;;;;;;7.75;3.15;;;21.70;43.60;;;;;;5064872;28;20132;-52
2022/04/16 05:31:04;;;;;;;5.60;3.10;;;21.60;43.50;;;;;;5067298;28;20409;-47
2022/04/16 05:36:18;;;;;;;6.20;3.42;;;21.60;43.50;;;;;;5056992;28;20044;-53
2022/04/16 05:38:45;;;;;;;6.20;3.60;;;21.60;43.50;;;;;;5064861;28;20132;-54
2022/04/16 05:41:13;;;;;;;3.92;3.50;;;21.60;43.40;;;;;;5066460;28;20077;-47
2022/04/16 05:43:40;;;;;;;3.50;3.10;;;21.60;43.40;;;;;;5067223;28;20428;-49
2022/04/16 05:46:07;;;;;;;4.57;3.30;;;21.60;43.40;;;;;;5048492;28;20409;-49
2022/04/16 05:48:34;;;;;;;5.35;3.25;;;21.60;43.30;;;;;;5065091;28;20147;-51
2022/04/16 05:51:02;;;;;;;5.28;4.60;;;21.50;43.20;;;;;;5065482;28;20081;-51
2022/04/16 05:53:31;;;;;;;5.13;3.05;;;21.50;43.20;;;;;;5052542;28;20103;-51
2022/04/16 05:55:58;;;;;;;6.07;3.60;;;21.60;43.20;;;;;;5062975;28;20539;-53
2022/04/16 05:58:25;;;;;;;5.57;3.65;;;21.50;43.20;;;;;;5064846;28;20032;-50
2022/04/16 06:00:52;;;;;;;7.82;3.20;;;21.50;43.20;;;;;;5066463;28;20050;-50
2022/04/16 06:03:20;;;;;;;4.13;3.72;;;21.50;43.10;;;;;;5066283;28;20036;-50
2022/04/16 06:05:47;;;;;;;7.05;3.88;;;21.50;43.10;;;;;;5048479;28;20044;-52
2022/04/16 06:08:14;;;;;;;5.07;3.85;;;21.50;43.10;;;;;;5065878;28;20074;-50
2022/04/16 06:10:43;;;;;;;4.68;4.28;;;21.50;43.10;;;;;;5064335;28;20088;-51
2022/04/16 06:13:10;;;;;;;5.32;3.30;;;21.50;43.10;;;;;;5065924;28;20123;-51
2022/04/16 06:15:40;;;;;;;5.47;3.67;;;21.50;43.00;;;;;;5065791;28;20063;-52
2022/04/16 06:18:08;;;;;;;7.05;4.05;;;21.50;43.00;;;;;;5064766;28;20055;-52
2022/04/16 06:20:35;;;;;;;4.85;3.60;;;21.50;43.00;;;;;;5065069;28;20049;-52
2022/04/16 06:23:02;;;;;;;4.38;3.92;;;21.50;42.90;;;;;;5067347;28;20044;-52
2022/04/16 06:25:29;;;;;;;5.45;4.75;;;21.40;42.90;;;;;;5066276;28;20090;-49
2022/04/16 06:27:57;;;;;;;5.15;4.25;;;21.40;42.80;;;;;;5064143;28;20029;-48
2022/04/16 06:30:24;;;;;;;6.45;5.63;;;21.50;42.90;;;;;;5066064;28;20072;-49
2022/04/16 06:32:51;;;;;;;4.45;4.15;;;21.50;42.90;;;;;;5066318;28;20050;-47
2022/04/16 06:35:18;;;;;;;6.30;5.20;;;21.40;42.80;;;;;;5067893;28;20473;-48
2022/04/16 06:37:45;;;;;;;6.60;5.45;;;21.40;42.80;;;;;;5063407;28;20048;-51
2022/04/16 06:40:13;;;;;;;6.25;5.63;;;21.50;42.80;;;;;;5064119;28;20124;-49
2022/04/16 06:42:40;;;;;;;11.15;5.20;;;21.40;42.60;;;;;;5065780;28;20382;-53
2022/04/16 06:45:11;;;;;;;8.98;6.10;;;21.40;42.60;;;;;;5048047;28;20040;-48
2022/04/16 06:47:39;;;;;;;6.25;5.55;;;21.50;42.60;;;;;;5064121;28;20072;-47
2022/04/16 06:50:08;;;;;;;9.57;5.20;;;21.40;42.50;;;;;;5065078;28;20120;-40
2022/04/16 06:52:35;;;;;;;7.28;5.70;;;21.40;42.50;;;;;;5062696;28;20485;-50
2022/04/16 06:55:03;;;;;;;8.98;6.38;;;21.40;42.40;;;;;;5044047;28;20135;-49
2022/04/16 06:57:30;;;;;;;8.07;5.95;;;21.40;42.40;;;;;;5063978;28;20044;-50
2022/04/16 06:59:57;;;;;;;9.02;6.13;;;21.40;42.30;;;;;;5048299;28;20055;-52
2022/04/16 07:02:25;;;;;;;7.25;5.78;;;21.40;42.30;;;;;;5067464;28;20093;-50
2022/04/16 07:04:52;;;;;;;9.15;6.45;;;21.40;42.30;;;;;;5065577;28;20033;-52
2022/04/16 07:07:19;;;;;;;6.75;5.47;;;21.40;42.30;;;;;;5065648;28;20053;-50
2022/04/16 07:09:47;;;;;;;9.57;5.45;;;21.40;42.40;;;;;;5065529;28;20511;-47
2022/04/16 07:12:14;;;;;;;9.32;5.68;;;21.40;42.50;;;;;;5065736;28;20128;-53
2022/04/16 07:14:42;;;;;;;8.15;5.40;;;21.50;42.50;;;;;;5066054;28;20075;-50
2022/04/16 07:17:09;;;;;;;9.30;6.53;;;21.50;42.50;;;;;;5067279;28;20528;-53
2022/04/16 07:19:38;;;;;;;5.80;5.20;;;21.50;42.30;;;;;;5065325;28;20078;-51
2022/04/16 07:22:06;;;;;;;6.50;5.82;;;21.60;42.30;;;;;;5065624;28;20045;-50
2022/04/16 07:24:37;;;;;;;6.10;5.50;;;21.60;42.20;;;;;;5068076;28;20412;-49
2022/04/16 07:27:05;;;;;;;6.93;6.30;;;21.60;42.10;;;;;;5068785;28;20110;-49
2022/04/16 07:29:32;;;;;;;7.90;6.28;;;21.70;42.00;;;;;;5070738;28;20078;-51
2022/04/16 07:31:59;;;;;;;6.25;5.47;;;21.70;42.00;;;;;;5058551;28;20053;-53
2022/04/16 07:34:27;;;;;;;6.60;5.47;;;21.70;42.00;;;;;;5065066;28;20039;-52
2022/04/16 07:36:55;;;;;;;7.00;6.38;;;21.70;41.80;;;;;;5069530;28;20787;-47
2022/04/16 07:39:22;;;;;;;7.38;6.65;;;21.80;41.70;;;;;;5069527;28;20051;-49
2022/04/16 07:41:51;;;;;;;6.30;5.53;;;21.80;41.70;;;;;;5072602;28;20853;-47
2022/04/16 07:44:18;;;;;;;5.97;5.15;;;21.80;41.70;;;;;;5071675;28;20041;-49
2022/04/16 07:46:45;;;;;;;8.73;5.75;;;21.80;41.70;;;;;;5069823;28;20131;-48
2022/04/16 07:49:13;;;;;;;9.70;6.60;;;21.90;41.60;;;;;;5068858;28;20043;-50
2022/04/16 07:51:40;;;;;;;7.28;6.13;;;21.90;41.40;;;;;;5069671;28;20048;-50
2022/04/16 07:54:08;;;;;;;11.38;5.85;;;21.90;41.40;;;;;;5069242;28;20436;-52
2022/04/16 07:56:35;;;;;;;9.55;6.10;;;21.90;41.30;;;;;;5053899;28;20049;-47
2022/04/16 07:59:02;;;;;;;8.52;6.68;;;21.90;41.30;;;;;;5070489;28;20040;-50
2022/04/16 08:01:29;;;;;;;7.25;6.40;;;21.90;41.20;;;;;;5068884;28;20501;-49
2022/04/16 08:03:56;;;;;;;9.23;6.68;;;22.00;41.20;;;;;;5068273;28;20081;-47
2022/04/16 08:06:23;;;;;;;8.30;5.97;;;22.00;41.20;;;;;;5068551;28;20070;-50
2022/04/16 08:08:50;;;;;;;7.35;6.43;;;22.00;41.10;;;;;;5069069;28;20412;-46
2022/04/16 08:11:18;;;;;;;7.28;6.57;;;22.00;41.10;;;;;;5070488;28;20076;-49
2022/04/16 08:13:45;;;;;;;6.20;5.60;;;22.00;41.10;;;;;;5068243;28;20040;-47
2022/04/16 08:16:12;;;;;;;9.73;5.53;;;22.00;41.10;;;;;;5068655;28;20116;-50
2022/04/16 08:18:39;;;;;;;7.72;5.45;;;22.00;41.10;;;;;;5068312;28;20520;-48
2022/04/16 08:21:07;;;;;;;8.95;6.55;;;22.00;41.00;;;;;;5069117;28;20040;-51
2022/04/16 08:23:40;;;;;;;9.70;6.68;;;22.00;41.00;;;;;;5069590;28;20036;-49
2022/04/16 08:26:07;;;;;;;24.83;5.28;;;22.10;41.00;;;;;;5069528;28;20505;-48
2022/04/16 08:28:35;;;;;;;9.18;7.28;;;22.00;40.90;;;;;;5068387;28;20052;-47
2022/04/16 08:31:02;;;;;;;6.93;5.55;;;22.10;40.90;;;;;;5068670;28;20116;-47
2022/04/16 08:33:29;;;;;;;8.50;6.07;;;22.10;40.90;;;;;;5068266;28;20039;-47
2022/04/16 08:35:56;;;;;;;11.20;7.13;;;22.10;40.80;;;;;;5068296;28;20076;-48
2022/04/16 08:38:23;;;;;;;7.35;5.45;;;22.10;40.70;;;;;;5070105;28;20041;-49
2022/04/16 08:40:53;;;;;;;10.52;7.95;;;22.10;40.60;;;;;;5068163;28;20043;-48
2022/04/16 08:43:21;;;;;;;7.88;6.93;;;22.10;40.70;;;;;;5067954;28;20496;-48
2022/04/16 08:45:51;;;;;;;7.75;6.95;;;22.10;40.70;;;;;;5068154;28;20040;-49
2022/04/16 08:48:19;;;;;;;9.55;6.82;;;22.10;40.70;;;;;;5067776;28;20041;-48
2022/04/16 08:50:47;;;;;;;8.82;5.63;;;22.10;40.70;;;;;;5068409;28;20076;-48
2022/04/16 08:53:14;;;;;;;8.63;5.97;;;22.10;40.60;;;;;;5069746;28;20048;-48
2022/04/16 08:55:42;;;;;;;6.07;5.47;;;22.10;40.50;;;;;;5058963;28;20044;-50
2022/04/16 08:58:09;;;;;;;7.80;5.57;;;22.10;40.40;;;;;;5043749;28;20131;-46
2022/04/16 09:00:36;;;;;;;7.07;6.13;;;22.10;40.40;;;;;;5067754;28;20041;-38
2022/04/16 09:03:06;;;;;;;7.53;5.85;;;22.10;40.30;;;;;;5049938;28;20043;-50
2022/04/16 09:05:34;;;;;;;6.80;6.03;;;22.10;40.30;;;;;;5068864;28;20048;-45
2022/04/16 09:08:03;;;;;;;7.95;6.18;;;22.10;40.20;;;;;;5069173;28;20037;-48
2022/04/16 09:10:32;;;;;;;9.52;6.97;;;22.10;40.30;;;;;;5067526;28;20033;-48
2022/04/16 09:13:01;;;;;;;9.18;6.43;;;22.10;40.30;;;;;;5067057;28;20043;-48
2022/04/16 09:15:29;;;;;;;11.18;6.50;;;22.10;40.40;;;;;;5066786;28;20044;-48
2022/04/16 09:18:01;;;;;;;7.03;6.15;;;22.10;40.30;;;;;;5067401;28;20064;-46
2022/04/16 09:20:35;;;;;;;6.47;5.90;;;22.10;40.30;;;;;;5067451;28;20207;-48
2022/04/16 09:23:03;;;;;;;6.72;4.93;;;22.10;40.30;;;;;;5068259;28;20112;-49
2022/04/16 09:25:32;;;;;;;6.72;4.82;;;22.10;40.50;;;;;;5067189;28;20124;-48
2022/04/16 09:28:06;;;;;;;8.00;6.25;;;22.10;40.50;;;;;;5066739;28;20040;-52
2022/04/16 09:30:34;;;;;;;6.32;5.75;;;22.20;40.50;;;;;;5064963;28;20028;-52
2022/04/16 09:33:02;;;;;;;8.85;6.35;;;22.10;40.30;;;;;;5066621;28;20032;-47
2022/04/16 09:35:31;;;;;;;6.75;5.15;;;22.20;40.30;;;;;;5066199;28;20036;-49
2022/04/16 09:38:01;;;;;;;7.90;6.05;;;22.20;40.40;;;;;;5066924;28;20045;-48
2022/04/16 09:40:30;;;;;;;7.20;6.50;;;22.20;40.30;;;;;;5066296;28;20049;-48
2022/04/16 09:43:01;;;;;;;8.00;6.13;;;22.20;40.30;;;;;;5066283;28;20078;-48
2022/04/16 09:45:28;;;;;;;10.90;8.00;;;22.30;40.30;;;;;;5066143;28;20044;-50
2022/04/16 09:47:56;;;;;;;8.00;6.28;;;22.30;40.90;;;;;;5065106;28;20048;-46
2022/04/16 09:50:25;;;;;;;5.68;5.18;;;22.30;40.20;;;;;;5068051;28;20114;-46
2022/04/16 09:52:54;;;;;;;8.20;6.85;;;22.40;40.20;;;;;;5065669;28;20037;-51
2022/04/16 09:55:25;;;;;;;8.82;6.28;;;22.40;40.10;;;;;;5066918;28;20041;-53
2022/04/16 09:57:55;;;;;;;7.88;6.47;;;22.40;40.20;;;;;;5065963;28;20044;-51
2022/04/16 10:00:22;;;;;;;10.88;6.25;;;22.40;40.10;;;;;;5065434;28;20036;-52
2022/04/16 10:02:50;;;;;;;6.70;5.25;;;22.40;40.10;;;;;;5065715;28;20472;-51
2022/04/16 10:05:17;;;;;;;8.50;5.50;;;22.50;40.00;;;;;;5067123;28;20526;-52
2022/04/16 10:07:45;;;;;;;6.78;5.32;;;22.50;39.70;;;;;;5065330;28;20063;-53
2022/04/16 10:10:25;;;;;;;6.65;5.00;;;22.50;39.70;;;;;;5065754;28;20041;-49
2022/04/16 10:13:03;;;;;;;8.05;4.50;;;22.60;39.60;;;;;;5060992;28;20047;-53
2022/04/16 10:15:52;;;;;;;5.28;4.75;;;22.60;39.40;;;;;;5064402;28;20571;-49
2022/04/16 10:18:20;;;;;;;5.10;4.60;;;22.60;39.30;;;;;;5062989;28;20094;-51
2022/04/16 10:20:54;;;;;;;4.38;3.92;;;22.60;39.20;;;;;;5063005;28;20603;-49
2022/04/16 10:23:30;;;;;;;7.95;4.53;;;22.70;39.00;;;;;;5063687;28;20044;-52
2022/04/16 10:26:09;;;;;;;4.07;3.53;;;22.60;38.90;;;;;;5063192;28;20098;-48
2022/04/16 10:28:42;;;;;;;7.40;4.75;;;22.70;38.90;;;;;;5057140;28;20053;-50
2022/04/16 10:31:23;;;;;;;6.10;4.65;;;22.70;38.90;;;;;;5065993;28;20044;-47
2022/04/16 10:33:59;;;;;;;5.15;3.70;;;22.80;38.50;;;;;;5064756;28;20075;-55
2022/04/16 10:36:28;;;;;;;4.93;4.53;;;22.80;38.40;;;;;;5066918;28;20179;-51
2022/04/16 10:38:56;;;;;;;8.07;4.40;;;22.80;38.40;;;;;;5066021;28;20044;-59
2022/04/16 10:41:23;;;;;;;4.35;3.90;;;22.90;38.20;;;;;;5066498;28;20056;-58
2022/04/16 10:43:59;;;;;;;4.55;4.15;;;22.90;37.90;;;;;;5064747;28;20048;-57
2022/04/16 10:46:40;;;;;;;7.00;4.20;;;23.00;37.80;;;;;;5062646;28;20033;-58
2022/04/16 10:49:09;;;;;;;5.20;4.35;;;23.00;37.60;;;;;;5063153;28;20523;-52
2022/04/16 10:51:36;;;;;;;3.72;2.90;;;23.10;37.50;;;;;;5053921;28;20040;-51
2022/04/16 10:54:09;;;;;;;30.45;3.13;;;23.10;37.50;;;;;;5065341;28;20032;-53
2022/04/16 10:56:39;;;;;;;22.13;3.22;;;23.20;38.40;;;;;;5047207;28;20053;-49
2022/04/16 10:59:10;;;;;;;34.13;4.90;;;23.30;39.10;;;;;;5047913;28;20082;-56
2022/04/16 11:01:38;;;;;;;33.28;3.75;;;23.40;40.30;;;;;;5061133;28;20044;-66
2022/04/16 11:04:13;;;;;;;37.70;4.15;;;23.50;40.70;;;;;;5061116;28;20036;-54
2022/04/16 11:06:44;;;;;;;22.05;3.85;;;23.70;41.40;;;;;;5065522;28;20051;-54
2022/04/16 11:09:13;;;;;;;18.40;2.97;;;23.70;41.40;;;;;;5065439;28;20041;-55
2022/04/16 11:11:41;;;;;;;10.90;2.58;;;23.80;41.80;;;;;;5063023;28;20668;-52
2022/04/16 11:14:10;;;;;;;11.40;1.85;;;23.90;41.90;;;;;;5066147;28;20090;-51
2022/04/16 11:16:44;;;;;;;24.90;1.90;;;24.10;42.10;;;;;;5065948;28;20497;-53
2022/04/16 11:19:13;;;;;;;5.68;0.98;;;24.20;42.20;;;;;;5064050;28;20421;-53
2022/04/16 11:21:40;;;;;;;10.70;2.08;;;24.20;42.20;;;;;;5065743;28;20053;-52
2022/04/16 11:24:08;;;;;;;15.45;1.33;;;24.40;42.40;;;;;;5063360;28;20049;-52
2022/04/16 11:34:52;;;;;;;7.85;1.27;;;24.60;41.70;;;;;;5065286;28;20497;-51
2022/04/16 11:37:20;;;;;;;5.38;0.60;;;24.70;41.50;;;;;;5066021;28;20873;-53
2022/04/16 11:39:48;;;;;;;12.15;1.33;;;24.80;41.40;;;;;;5065144;28;20044;-49
2022/04/16 11:42:15;;;;;;;8.55;0.82;;;24.80;41.10;;;;;;5064916;28;20119;-52
2022/04/16 11:44:45;;;;;;;11.00;1.73;;;24.90;41.00;;;;;;5065274;28;20182;-50
2022/04/16 11:47:14;;;;;;;7.85;0.45;;;25.00;40.90;;;;;;5067483;28;20055;-53
2022/04/16 11:49:44;;;;;;;2.10;0.90;;;25.10;40.70;;;;;;5066684;28;20052;-53
2022/04/16 11:52:12;;;;;;;6.80;1.42;;;25.10;40.60;;;;;;5065908;28;20544;-54
2022/04/16 11:54:39;;;;;;;3.65;0.90;;;25.20;40.50;;;;;;5064629;28;20040;-55
2022/04/16 11:57:07;;;;;;;3.63;0.55;;;25.30;40.40;;;;;;5050679;28;20041;-55
2022/04/16 11:59:35;;;;;;;1.33;0.68;;;25.30;40.30;;;;;;5066563;28;20114;-54
2022/04/16 12:02:08;;;;;;;1.25;0.73;;;25.40;40.20;;;;;;5066321;28;20078;-54
2022/04/16 12:04:40;;;;;;;6.95;1.42;;;25.50;40.10;;;;;;5065229;28;20151;-54
2022/04/16 12:07:14;;;;;;;7.53;0.93;;;25.50;40.00;;;;;;5065462;28;20315;-52
2022/04/16 12:09:46;;;;;;;5.97;0.50;;;25.60;40.00;;;;;;5065821;28;20048;-53
2022/04/16 12:12:17;;;;;;;3.97;0.85;;;25.70;39.90;;;;;;5069632;28;20059;-52
2022/04/16 12:14:48;;;;;;;2.28;0.60;;;25.70;39.70;;;;;;5069613;28;20098;-54
2022/04/16 12:17:24;;;;;;;0.90;0.35;;;25.70;39.60;;;;;;5070948;28;20032;-50
2022/04/16 12:20:05;;;;;;;4.95;0.45;;;25.90;39.60;;;;;;5069211;28;20091;-51
2022/04/16 12:22:33;;;;;;;1.00;0.50;;;25.90;39.50;;;;;;5069043;28;20380;-53
2022/04/16 12:25:11;;;;;;;1.95;0.28;;;25.90;39.40;;;;;;5068748;28;20044;-52
2022/04/16 12:27:45;;;;;;;3.28;0.40;;;26.00;39.30;;;;;;5069390;28;20051;-54
2022/04/16 12:30:17;;;;;;;3.13;1.20;;;26.10;39.30;;;;;;5050814;28;20052;-54
2022/04/16 12:32:57;;;;;;;2.17;0.47;;;26.10;39.10;;;;;;5069466;28;20164;-50
2022/04/16 12:35:25;;;;;;;2.45;0.60;;;26.20;39.00;;;;;;5070521;28;20599;-50
2022/04/16 12:37:53;;;;;;;4.85;1.00;;;26.20;38.90;;;;;;5068741;28;20143;-52
2022/04/16 12:40:21;;;;;;;1.15;0.17;;;26.30;38.80;;;;;;5068718;28;20047;-51
2022/04/16 12:42:48;;;;;;;0.82;0.40;;;26.40;38.80;;;;;;5068581;28;20049;-51
2022/04/16 12:45:15;;;;;;;2.65;0.25;;;26.40;38.70;;;;;;5068531;28;20118;-53
2022/04/16 12:47:42;;;;;;;2.28;0.45;;;26.40;38.60;;;;;;5069091;28;20528;-52
2022/04/16 12:50:12;;;;;;;1.95;0.32;;;26.50;38.50;;;;;;5069963;28;20516;-50
2022/04/16 12:52:39;;;;;;;0.30;0.30;;;26.60;38.50;;;;;;5050319;28;20136;-50
2022/04/16 12:55:07;;;;;;;1.25;0.20;;;26.60;38.40;;;;;;5064400;28;20132;-51
2022/04/16 12:57:34;;;;;;;0.20;0.20;;;26.60;38.30;;;;;;5039428;28;20155;-52
2022/04/16 13:00:01;;;;;;;2.67;0.20;;;26.70;38.20;;;;;;5068599;28;20556;-52
2022/04/16 13:02:28;;;;;;;1.15;0.30;;;26.80;38.20;;;;;;5070167;28;20517;-54
2022/04/16 13:04:55;;;;;;;2.53;0.20;;;26.80;38.10;;;;;;5067840;28;20048;-55
2022/04/16 13:07:23;;;;;;;0.47;0.40;;;26.90;38.00;;;;;;5067868;28;20097;-51
2022/04/16 13:09:50;;;;;;;0.50;0.28;;;27.00;38.00;;;;;;5068199;28;20041;-54
2022/04/16 13:12:19;;;;;;;0.73;0.20;;;27.00;37.80;;;;;;5068206;28;20045;-52
2022/04/16 13:14:46;;;;;;;0.50;0.40;;;27.10;37.80;;;;;;5068742;28;20043;-53
2022/04/16 13:17:13;;;;;;;0.32;0.20;;;27.20;37.70;;;;;;5069772;28;20121;-53